createdAt,value
2023-02-10T00:04:53.475Z,-2.42
2023-02-10T00:09:56.038Z,-2.34
2023-02-10T00:14:58.625Z,-2.26
2023-02-10T00:20:01.208Z,-2.22
2023-02-10T00:25:04.060Z,-2.22
2023-02-10T00:30:06.886Z,-2.22
2023-02-10T00:35:10.188Z,-2.25
2023-02-10T00:40:12.789Z,-2.28
2023-02-10T00:45:15.384Z,-2.28
2023-02-10T00:50:17.989Z,-2.25
2023-02-10T00:55:20.815Z,-2.21
2023-02-10T01:00:23.450Z,-2.19
2023-02-10T01:05:26.062Z,-2.17
2023-02-10T01:10:29.052Z,-2.18
2023-02-10T01:15:32.104Z,-2.19
2023-02-10T01:20:34.757Z,-2.14
2023-02-10T01:25:38.518Z,-2.04
2023-02-10T01:30:41.077Z,-1.95
2023-02-10T01:35:43.740Z,-1.89
2023-02-10T01:40:50.157Z,-1.85
2023-02-10T01:45:53.040Z,-1.79
2023-02-10T01:51:05.463Z,-1.71
2023-02-10T01:56:08.871Z,-1.63
2023-02-10T02:01:12.131Z,-1.56
2023-02-10T02:06:14.798Z,-1.52
2023-02-10T02:11:35.001Z,-1.48
2023-02-10T02:16:43.426Z,-1.43
2023-02-10T02:22:00.435Z,-1.39
2023-02-10T02:27:22.000Z,-1.36
2023-02-10T02:32:37.948Z,-1.38
2023-02-10T02:37:46.031Z,-1.40
2023-02-10T02:42:49.525Z,-1.41
2023-02-10T02:48:11.612Z,-1.42
2023-02-10T02:53:45.958Z,-1.44
2023-02-10T02:58:57.462Z,-1.44
2023-02-10T03:04:00.680Z,-1.43
2023-02-10T03:09:03.501Z,-1.44
2023-02-10T03:14:06.386Z,-1.46
2023-02-10T03:19:09.104Z,-1.48
2023-02-10T03:24:11.806Z,-1.51
2023-02-10T03:29:15.633Z,-1.53
2023-02-10T03:34:20.527Z,-1.53
2023-02-10T03:39:23.430Z,-1.51
2023-02-10T03:44:26.372Z,-1.49
2023-02-10T03:49:28.923Z,-1.51
2023-02-10T03:54:32.421Z,-1.53
2023-02-10T03:59:35.039Z,-1.55
2023-02-10T04:04:37.755Z,-1.56
2023-02-10T04:09:40.387Z,-1.56
2023-02-10T04:14:46.040Z,-1.55
2023-02-10T04:19:48.683Z,-1.56
2023-02-10T04:24:51.274Z,-1.59
2023-02-10T04:29:53.841Z,-1.58
2023-02-10T04:34:56.533Z,-1.53
2023-02-10T04:39:59.088Z,-1.49
2023-02-10T04:45:01.708Z,-1.45
2023-02-10T04:50:05.209Z,-1.45
2023-02-10T04:55:08.620Z,-1.47
2023-02-10T05:00:12.654Z,-1.48
2023-02-10T05:05:15.334Z,-1.48
2023-02-10T05:10:18.036Z,-1.43
2023-02-10T05:15:21.293Z,-1.35
2023-02-10T05:20:24.956Z,-1.30
2023-02-10T05:25:27.661Z,-1.28
2023-02-10T05:30:32.181Z,-1.26
2023-02-10T05:35:35.839Z,-1.25
2023-02-10T05:40:39.166Z,-1.23
2023-02-10T05:45:42.901Z,-1.21
2023-02-10T05:50:45.616Z,-1.19
2023-02-10T05:55:48.520Z,-1.17
2023-02-10T06:00:51.334Z,-1.15
2023-02-10T06:05:54.009Z,-1.11
2023-02-10T06:10:56.639Z,-1.05
2023-02-10T06:15:59.268Z,-0.98
2023-02-10T06:21:04.206Z,-0.94
2023-02-10T06:26:10.031Z,-0.86
2023-02-10T06:31:12.850Z,-0.82
2023-02-10T06:36:15.996Z,-0.77
2023-02-10T06:41:18.578Z,-0.69
2023-02-10T06:46:21.471Z,-0.59
2023-02-10T06:51:24.104Z,-0.53
2023-02-10T06:56:26.666Z,-0.48
2023-02-10T07:01:29.249Z,-0.42
2023-02-10T07:06:31.998Z,-0.40
2023-02-10T07:11:35.017Z,-0.35
2023-02-10T07:16:37.978Z,-0.29
2023-02-10T07:21:40.546Z,-0.21
2023-02-10T07:26:43.149Z,-0.16
2023-02-10T07:31:45.833Z,-0.08
2023-02-10T07:36:54.616Z,0.03
2023-02-10T07:41:57.196Z,0.16
2023-02-10T07:47:00.256Z,0.24
2023-02-10T07:52:03.888Z,0.32
2023-02-10T07:57:06.507Z,0.42
2023-02-10T08:02:12.979Z,0.51
2023-02-10T08:07:15.624Z,0.60
2023-02-10T08:12:18.180Z,0.74
2023-02-10T08:17:20.693Z,0.88
2023-02-10T08:22:23.654Z,0.98
2023-02-10T08:27:26.920Z,1.09
2023-02-10T08:32:29.480Z,1.27
2023-02-10T08:37:32.344Z,1.51
2023-02-10T08:42:35.329Z,1.70
2023-02-10T08:47:37.979Z,1.86
2023-02-10T08:52:40.536Z,1.90
2023-02-10T08:57:43.072Z,1.85
2023-02-10T09:02:45.757Z,1.76
2023-02-10T09:07:48.594Z,1.92
2023-02-10T09:12:51.630Z,2.16
2023-02-10T09:17:54.177Z,2.42
2023-02-10T09:22:56.735Z,2.74
2023-02-10T09:27:59.682Z,2.85
2023-02-10T09:33:02.278Z,2.91
2023-02-10T09:38:04.865Z,3.14
2023-02-10T09:43:39.250Z,3.55
2023-02-10T09:49:14.608Z,3.83
2023-02-10T09:54:17.795Z,3.90
2023-02-10T09:59:24.305Z,3.99
2023-02-10T10:04:29.692Z,4.06
2023-02-10T10:09:55.821Z,4.21
2023-02-10T10:14:58.521Z,4.27
2023-02-10T10:20:22.950Z,4.32
2023-02-10T10:25:47.342Z,4.47
2023-02-10T10:30:58.267Z,4.57
2023-02-10T10:36:02.447Z,4.68
2023-02-10T10:41:11.431Z,4.71
2023-02-10T10:46:28.548Z,4.71
2023-02-10T10:51:31.502Z,4.60
2023-02-10T10:56:40.148Z,4.64
2023-02-10T11:01:45.105Z,4.55
2023-02-10T11:06:50.943Z,4.72
2023-02-10T11:12:01.064Z,4.87
2023-02-10T11:17:06.685Z,4.84
2023-02-10T11:22:17.565Z,5.03
2023-02-10T11:27:20.949Z,4.92
2023-02-10T11:32:28.850Z,4.77
2023-02-10T11:37:35.749Z,4.44
2023-02-10T11:42:39.514Z,4.18
2023-02-10T11:47:42.385Z,3.90
2023-02-10T11:52:44.953Z,3.68
2023-02-10T11:58:13.748Z,3.59
2023-02-10T12:03:39.073Z,3.38
2023-02-10T12:09:00.619Z,3.25
2023-02-10T12:14:37.988Z,3.10
2023-02-10T12:19:53.450Z,2.92
2023-02-10T12:25:15.613Z,2.78
2023-02-10T12:30:44.766Z,2.74
2023-02-10T12:35:53.103Z,2.70
2023-02-10T12:41:11.510Z,2.68
2023-02-10T12:46:28.927Z,2.66
2023-02-10T12:52:04.688Z,2.64
2023-02-10T12:57:17.060Z,2.66
2023-02-10T13:02:50.339Z,2.75
2023-02-10T13:08:01.242Z,2.87
2023-02-10T13:13:14.503Z,2.93
2023-02-10T13:18:23.677Z,2.96
2023-02-10T13:23:32.723Z,3.06
2023-02-10T13:29:17.858Z,3.16
2023-02-10T13:34:26.537Z,3.09
2023-02-10T13:39:31.560Z,3.07
2023-02-10T13:44:43.044Z,3.21
2023-02-10T13:50:05.317Z,3.25
2023-02-10T13:55:10.801Z,3.20
2023-02-10T14:00:20.684Z,3.22
2023-02-10T14:05:35.691Z,3.25
2023-02-10T14:10:38.320Z,3.24
2023-02-10T14:15:41.350Z,3.18
2023-02-10T14:20:46.524Z,3.08
2023-02-10T14:25:49.681Z,3.00
2023-02-10T14:30:56.991Z,2.93
2023-02-10T14:36:02.528Z,2.85
2023-02-10T14:41:19.837Z,2.80
2023-02-10T14:46:41.117Z,2.76
2023-02-10T14:51:48.106Z,2.76
2023-02-10T14:56:55.015Z,2.81
2023-02-10T15:02:24.620Z,2.75
2023-02-10T15:07:31.561Z,2.58
2023-02-10T15:12:42.615Z,2.42
2023-02-10T15:18:00.740Z,2.28
2023-02-10T15:23:05.107Z,2.16
2023-02-10T15:28:10.379Z,2.04
2023-02-10T15:33:46.378Z,1.94
2023-02-10T15:39:06.740Z,1.88
2023-02-10T15:44:30.106Z,1.84
2023-02-10T15:49:32.865Z,1.83
2023-02-10T15:54:38.185Z,1.80
2023-02-10T15:59:40.872Z,1.70
2023-02-10T16:04:44.237Z,1.57
2023-02-10T16:09:49.055Z,1.48
2023-02-10T16:14:53.338Z,1.41
2023-02-10T16:19:56.258Z,1.36
2023-02-10T16:24:59.683Z,1.31
2023-02-10T16:30:02.582Z,1.25
2023-02-10T16:35:05.781Z,1.16
2023-02-10T16:40:12.934Z,1.10
2023-02-10T16:45:17.872Z,1.10
2023-02-10T16:50:24.672Z,1.15
2023-02-10T16:55:28.409Z,1.21
2023-02-10T17:00:32.176Z,1.26
2023-02-10T17:05:35.086Z,1.30
2023-02-10T17:10:37.691Z,1.31
2023-02-10T17:15:40.348Z,1.31
2023-02-10T17:20:44.812Z,1.29
2023-02-10T17:25:49.013Z,1.29
2023-02-10T17:30:52.808Z,1.31
2023-02-10T17:35:58.668Z,1.35
2023-02-10T17:41:01.369Z,1.37
2023-02-10T17:46:04.272Z,1.35
2023-02-10T17:51:10.615Z,1.31
2023-02-10T17:56:13.240Z,1.28
2023-02-10T18:01:23.259Z,1.24
2023-02-10T18:06:29.898Z,1.22
2023-02-10T18:11:34.864Z,1.22
2023-02-10T18:16:37.730Z,1.20
2023-02-10T18:21:40.369Z,1.20
2023-02-10T18:26:43.444Z,1.22
2023-02-10T18:31:46.390Z,1.28
2023-02-10T18:36:49.643Z,1.33
2023-02-10T18:41:52.937Z,1.35
2023-02-10T18:46:55.594Z,1.38
2023-02-10T18:51:58.257Z,1.40
2023-02-10T18:57:01.762Z,1.39
2023-02-10T19:02:05.042Z,1.36
2023-02-10T19:07:07.673Z,1.33
2023-02-10T19:12:13.965Z,1.31
2023-02-10T19:17:16.759Z,1.31
2023-02-10T19:22:19.387Z,1.32
2023-02-10T19:27:22.853Z,1.36
2023-02-10T19:32:27.123Z,1.39
2023-02-10T19:37:30.947Z,1.45
2023-02-10T19:42:33.953Z,1.50
2023-02-10T19:47:39.588Z,1.54
2023-02-10T19:52:42.253Z,1.55
2023-02-10T19:57:47.371Z,1.58
2023-02-10T20:02:51.542Z,1.59
2023-02-10T20:07:54.250Z,1.61
2023-02-10T20:12:56.891Z,1.65
2023-02-10T20:17:59.557Z,1.68
2023-02-10T20:23:02.128Z,1.70
2023-02-10T20:28:08.625Z,1.71
2023-02-10T20:33:11.355Z,1.69
2023-02-10T20:38:14.329Z,1.69
2023-02-10T20:43:16.920Z,1.70
2023-02-10T20:48:19.548Z,1.73
2023-02-10T20:53:22.813Z,1.74
2023-02-10T20:58:28.002Z,1.75
2023-02-10T21:03:31.455Z,1.74
2023-02-10T21:08:36.132Z,1.71
2023-02-10T21:13:39.276Z,1.70
2023-02-10T21:18:42.277Z,1.69
2023-02-10T21:23:45.194Z,1.70
2023-02-10T21:28:47.953Z,1.71
2023-02-10T21:33:51.509Z,1.72
2023-02-10T21:39:00.010Z,1.74
2023-02-10T21:44:03.144Z,1.75
2023-02-10T21:49:05.858Z,1.78
2023-02-10T21:54:08.761Z,1.83
2023-02-10T21:59:12.667Z,1.85
2023-02-10T22:04:16.742Z,1.86
2023-02-10T22:09:19.733Z,1.88
2023-02-10T22:14:22.318Z,1.89
2023-02-10T22:19:24.959Z,1.92
2023-02-10T22:24:28.662Z,1.95
2023-02-10T22:29:31.432Z,1.98
2023-02-10T22:34:34.602Z,1.98
2023-02-10T22:39:37.172Z,1.96
2023-02-10T22:44:41.601Z,1.94
2023-02-10T22:49:45.050Z,1.92
2023-02-10T22:54:56.244Z,1.91
2023-02-10T22:59:58.771Z,1.93
2023-02-10T23:05:02.209Z,1.95
2023-02-10T23:10:05.773Z,1.98
2023-02-10T23:15:09.231Z,1.99
2023-02-10T23:20:14.766Z,2.00
2023-02-10T23:25:17.417Z,2.04
2023-02-10T23:30:20.068Z,2.05
2023-02-10T23:35:22.665Z,2.06
2023-02-10T23:40:25.243Z,2.05
2023-02-10T23:45:30.566Z,2.03
2023-02-10T23:50:34.786Z,2.05
2023-02-10T23:55:40.130Z,2.07
